createdAt,value
2019-05-30T00:01:29.759Z,6.48
2019-05-30T00:04:36.491Z,6.81
2019-05-30T00:07:42.912Z,7.14
2019-05-30T00:10:49.448Z,6.72
2019-05-30T00:13:56.689Z,6.97
2019-05-30T00:17:03.282Z,6.79
2019-05-30T00:20:09.924Z,6.38
2019-05-30T00:23:16.384Z,6.47
2019-05-30T00:26:22.833Z,6.97
2019-05-30T00:29:29.385Z,7.11
2019-05-30T00:32:36.081Z,6.94
2019-05-30T00:35:42.644Z,6.80
2019-05-30T00:38:49.201Z,6.98
2019-05-30T00:41:56.062Z,6.66
2019-05-30T00:45:11.235Z,6.68
2019-05-30T00:48:10.911Z,7.04
2019-05-30T00:51:17.631Z,6.37
2019-05-30T00:54:24.076Z,6.54
2019-05-30T00:57:30.484Z,6.90
2019-05-30T01:00:43.249Z,6.31
2019-05-30T01:03:45.416Z,6.08
2019-05-30T01:06:52.445Z,6.23
2019-05-30T01:09:59.184Z,6.32
2019-05-30T01:13:07.266Z,6.16
2019-05-30T01:16:13.954Z,6.23
2019-05-30T01:19:20.703Z,6.45
2019-05-30T01:22:27.100Z,6.01
2019-05-30T01:25:54.025Z,5.84
2019-05-30T01:29:01.451Z,5.66
2019-05-30T01:32:26.117Z,6.04
2019-05-30T01:35:33.005Z,5.56
2019-05-30T01:38:39.553Z,5.96
2019-05-30T01:41:46.102Z,6.06
2019-05-30T01:44:53.225Z,5.87
2019-05-30T01:48:00.060Z,5.44
2019-05-30T01:51:06.920Z,5.49
2019-05-30T01:54:13.457Z,5.70
2019-05-30T01:57:19.962Z,5.52
2019-05-30T02:00:38.437Z,5.39
2019-05-30T02:03:45.108Z,5.41
2019-05-30T02:06:51.564Z,5.76
2019-05-30T02:09:59.172Z,5.84
2019-05-30T02:13:05.970Z,5.38
2019-05-30T02:16:12.508Z,5.11
2019-05-30T02:19:19.040Z,5.37
2019-05-30T02:22:25.552Z,5.51
2019-05-30T02:25:32.269Z,5.50
2019-05-30T02:28:38.688Z,5.30
2019-05-30T02:31:45.215Z,5.28
2019-05-30T02:34:52.787Z,5.29
2019-05-30T02:38:00.857Z,5.14
2019-05-30T02:41:08.269Z,5.46
2019-05-30T02:44:15.762Z,5.54
2019-05-30T02:47:22.715Z,5.33
2019-05-30T02:50:29.383Z,5.37
2019-05-30T02:53:36.062Z,5.37
2019-05-30T02:56:42.641Z,5.35
2019-05-30T02:59:49.236Z,5.37
2019-05-30T03:02:55.696Z,5.34
2019-05-30T03:06:03.877Z,5.29
2019-05-30T03:09:12.931Z,5.26
2019-05-30T03:12:20.959Z,5.16
2019-05-30T03:15:28.460Z,5.13
2019-05-30T03:18:35.116Z,5.23
2019-05-30T03:21:41.748Z,5.51
2019-05-30T03:24:48.328Z,5.24
2019-05-30T03:27:54.776Z,5.18
2019-05-30T03:31:05.697Z,5.20
2019-05-30T03:34:22.836Z,5.23
2019-05-30T03:37:28.566Z,5.18
2019-05-30T03:40:29.618Z,5.27
2019-05-30T03:43:36.100Z,5.19
2019-05-30T03:46:49.236Z,5.27
2019-05-30T03:49:57.900Z,5.23
2019-05-30T03:53:05.292Z,4.99
2019-05-30T03:56:19.320Z,5.11
2019-05-30T03:59:35.492Z,5.26
2019-05-30T04:03:00.365Z,5.30
2019-05-30T04:06:16.150Z,5.32
2019-05-30T04:09:25.471Z,5.32
2019-05-30T04:13:26.270Z,5.23
2019-05-30T04:16:34.517Z,5.37
2019-05-30T04:19:41.035Z,5.46
2019-05-30T04:22:47.585Z,5.64
2019-05-30T04:25:54.087Z,5.63
2019-05-30T04:29:00.489Z,5.78
2019-05-30T04:32:08.425Z,5.73
2019-05-30T04:35:16.865Z,5.99
2019-05-30T04:38:23.436Z,6.07
2019-05-30T04:41:29.889Z,6.09
2019-05-30T04:44:36.314Z,6.40
2019-05-30T04:47:42.823Z,6.52
2019-05-30T04:50:49.492Z,6.67
2019-05-30T04:53:56.063Z,6.83
2019-05-30T04:57:02.577Z,6.94
2019-05-30T05:00:13.015Z,7.02
2019-05-30T05:03:41.655Z,7.19
2019-05-30T05:06:27.731Z,7.22
2019-05-30T05:09:34.681Z,7.53
2019-05-30T05:12:41.314Z,7.59
2019-05-30T05:15:47.808Z,7.75
2019-05-30T05:18:54.280Z,7.89
2019-05-30T05:22:00.738Z,8.07
2019-05-30T05:25:07.625Z,7.87
2019-05-30T05:28:14.063Z,8.21
2019-05-30T05:31:20.486Z,8.45
2019-05-30T05:34:26.927Z,8.48
2019-05-30T05:37:34.759Z,8.64
2019-05-30T05:40:41.259Z,8.68
2019-05-30T05:43:47.742Z,8.75
2019-05-30T05:46:54.115Z,8.96
2019-05-30T05:50:00.546Z,9.04
2019-05-30T05:53:07.089Z,9.26
2019-05-30T05:56:13.646Z,9.45
2019-05-30T05:59:20.993Z,9.42
2019-05-30T06:02:27.547Z,9.72
2019-05-30T06:05:35.651Z,9.79
2019-05-30T06:08:42.085Z,10.03
2019-05-30T06:11:49.204Z,9.91
2019-05-30T06:14:56.259Z,10.02
2019-05-30T06:18:02.764Z,10.31
2019-05-30T06:21:09.251Z,10.21
2019-05-30T06:24:15.679Z,10.41
2019-05-30T06:27:24.014Z,10.96
2019-05-30T06:30:30.488Z,11.15
2019-05-30T06:33:37.078Z,11.46
2019-05-30T06:36:43.499Z,11.39
2019-05-30T06:39:51.086Z,11.30
2019-05-30T06:42:57.598Z,11.79
2019-05-30T06:46:04.072Z,11.68
2019-05-30T06:49:10.518Z,11.93
2019-05-30T06:52:17.619Z,11.98
2019-05-30T06:55:25.145Z,12.35
2019-05-30T06:58:47.952Z,12.36
2019-05-30T07:01:42.644Z,12.64
2019-05-30T07:04:52.141Z,13.02
2019-05-30T07:07:57.219Z,12.91
2019-05-30T07:11:03.888Z,13.30
2019-05-30T07:14:11.182Z,13.02
2019-05-30T07:17:17.791Z,13.88
2019-05-30T07:20:25.516Z,13.63
2019-05-30T07:23:34.019Z,13.40
2019-05-30T07:26:40.611Z,13.81
2019-05-30T07:29:47.115Z,13.72
2019-05-30T07:32:53.636Z,13.73
2019-05-30T07:36:00.122Z,13.67
2019-05-30T07:39:08.956Z,14.58
2019-05-30T07:42:15.558Z,14.33
2019-05-30T07:45:24.762Z,14.12
2019-05-30T07:48:34.319Z,14.17
2019-05-30T07:51:41.084Z,14.73
2019-05-30T07:54:47.583Z,14.87
2019-05-30T07:57:54.118Z,14.71
2019-05-30T08:01:00.678Z,14.82
2019-05-30T08:04:07.336Z,14.98
2019-05-30T08:07:13.858Z,14.96
2019-05-30T08:10:21.269Z,14.74
2019-05-30T08:13:28.788Z,15.21
2019-05-30T08:16:35.962Z,15.23
2019-05-30T08:19:43.566Z,15.28
2019-05-30T08:22:50.112Z,15.21
2019-05-30T08:25:56.620Z,14.97
2019-05-30T08:29:03.225Z,15.50
2019-05-30T08:32:10.460Z,15.19
2019-05-30T08:35:18.310Z,15.89
2019-05-30T08:38:24.841Z,15.59
2019-05-30T08:41:33.214Z,15.60
2019-05-30T08:44:40.152Z,15.87
2019-05-30T08:47:46.820Z,15.79
2019-05-30T08:50:53.304Z,15.95
2019-05-30T08:53:59.977Z,15.80
2019-05-30T08:57:06.603Z,15.90
2019-05-30T09:00:15.537Z,16.01
2019-05-30T09:03:22.076Z,16.58
2019-05-30T09:06:30.564Z,16.32
2019-05-30T09:09:40.461Z,16.72
2019-05-30T09:12:49.726Z,16.62
2019-05-30T09:15:56.340Z,15.94
2019-05-30T09:19:03.028Z,16.57
2019-05-30T09:22:10.711Z,17.21
2019-05-30T09:25:18.085Z,16.65
2019-05-30T09:28:24.761Z,16.88
2019-05-30T09:31:33.530Z,17.25
2019-05-30T09:34:42.023Z,17.17
2019-05-30T09:37:49.521Z,17.07
2019-05-30T09:40:56.127Z,17.24
2019-05-30T09:44:02.716Z,16.44
2019-05-30T09:47:09.212Z,17.39
2019-05-30T09:50:17.721Z,17.56
2019-05-30T09:53:24.240Z,17.69
2019-05-30T09:56:30.815Z,17.64
2019-05-30T09:59:40.144Z,17.96
2019-05-30T10:02:48.640Z,16.92
2019-05-30T10:05:55.658Z,17.61
2019-05-30T10:09:02.205Z,17.84
2019-05-30T10:12:10.412Z,17.82
2019-05-30T10:15:19.060Z,17.85
2019-05-30T10:18:25.623Z,17.76
2019-05-30T10:21:35.326Z,17.78
2019-05-30T10:24:43.071Z,18.14
2019-05-30T10:27:51.026Z,18.20
2019-05-30T10:30:59.419Z,18.50
2019-05-30T10:34:07.493Z,17.89
2019-05-30T10:37:15.118Z,18.14
2019-05-30T10:40:21.899Z,18.03
2019-05-30T10:43:28.734Z,17.89
2019-05-30T10:46:35.575Z,17.63
2019-05-30T10:49:42.391Z,18.63
2019-05-30T10:52:49.494Z,18.67
2019-05-30T10:55:56.533Z,18.42
2019-05-30T10:59:03.290Z,18.74
2019-05-30T11:02:10.001Z,18.45
2019-05-30T11:10:13.604Z,18.96
2019-05-30T11:13:20.395Z,18.08
2019-05-30T11:16:26.886Z,18.65
2019-05-30T11:19:35.605Z,18.38
2019-05-30T11:22:42.076Z,18.17
2019-05-30T11:25:50.220Z,18.71
2019-05-30T11:28:57.061Z,18.66
2019-05-30T11:32:03.978Z,18.90
2019-05-30T11:35:10.633Z,19.31
2019-05-30T11:38:17.010Z,18.91
2019-05-30T11:41:23.490Z,18.87
2019-05-30T11:44:29.998Z,19.38
2019-05-30T11:47:37.568Z,19.25
2019-05-30T11:50:44.089Z,19.36
2019-05-30T11:53:51.731Z,19.13
2019-05-30T11:56:58.410Z,18.45
2019-05-30T12:00:06.041Z,18.03
2019-05-30T12:03:12.667Z,18.62
2019-05-30T12:06:19.121Z,18.52
2019-05-30T12:09:25.705Z,19.02
2019-05-30T12:12:32.237Z,18.93
2019-05-30T12:15:38.705Z,19.05
2019-05-30T12:18:45.220Z,19.39
2019-05-30T12:21:51.710Z,19.68
2019-05-30T12:24:58.181Z,19.26
2019-05-30T12:28:05.824Z,19.79
2019-05-30T12:31:12.325Z,20.37
2019-05-30T12:34:19.320Z,20.12
2019-05-30T12:37:25.830Z,19.28
2019-05-30T12:40:32.443Z,20.04
2019-05-30T12:43:38.927Z,20.52
2019-05-30T12:46:45.404Z,19.54
2019-05-30T12:49:53.272Z,20.05
2019-05-30T12:53:00.371Z,20.21
2019-05-30T12:56:08.324Z,20.21
2019-05-30T12:59:14.880Z,19.55
2019-05-30T13:02:21.425Z,19.50
2019-05-30T13:05:28.081Z,20.49
2019-05-30T13:08:37.680Z,19.92
2019-05-30T13:11:44.110Z,20.83
2019-05-30T13:14:50.556Z,20.32
2019-05-30T13:17:57.320Z,20.40
2019-05-30T13:21:04.243Z,20.49
2019-05-30T13:24:10.828Z,20.31
2019-05-30T13:27:17.341Z,19.78
2019-05-30T13:30:25.468Z,19.98
2019-05-30T13:33:38.171Z,20.11
2019-05-30T13:36:42.885Z,20.25
2019-05-30T13:39:49.299Z,19.75
2019-05-30T13:42:55.770Z,19.90
2019-05-30T13:46:02.915Z,20.31
2019-05-30T13:49:09.832Z,20.51
2019-05-30T13:52:16.305Z,20.53
2019-05-30T13:55:22.860Z,20.45
2019-05-30T13:58:29.338Z,20.22
2019-05-30T14:01:36.217Z,20.57
2019-05-30T14:04:42.724Z,20.99
2019-05-30T14:07:49.173Z,21.00
2019-05-30T14:10:55.677Z,21.03
2019-05-30T14:14:02.726Z,21.24
2019-05-30T14:17:12.375Z,21.03
2019-05-30T14:20:19.059Z,21.30
2019-05-30T14:23:25.568Z,21.04
2019-05-30T14:26:32.020Z,20.29
2019-05-30T14:29:38.440Z,20.80
2019-05-30T14:32:45.096Z,21.21
2019-05-30T14:35:51.608Z,21.06
2019-05-30T14:38:59.102Z,21.19
2019-05-30T14:42:07.119Z,21.35
2019-05-30T14:45:16.798Z,21.17
2019-05-30T14:48:23.406Z,21.25
2019-05-30T14:51:30.018Z,20.63
2019-05-30T14:54:38.079Z,21.15
2019-05-30T14:57:44.519Z,21.27
2019-05-30T15:00:51.115Z,21.40
2019-05-30T15:03:58.563Z,21.09
2019-05-30T15:07:05.330Z,21.25
2019-05-30T15:10:15.233Z,21.09
2019-05-30T15:13:21.897Z,21.04
2019-05-30T15:16:28.289Z,21.17
2019-05-30T15:19:34.816Z,21.19
2019-05-30T15:22:41.277Z,20.76
2019-05-30T15:25:48.015Z,20.33
2019-05-30T15:28:54.451Z,20.50
2019-05-30T15:32:01.182Z,20.80
2019-05-30T15:35:08.801Z,20.94
2019-05-30T15:38:15.497Z,20.64
2019-05-30T15:41:22.120Z,20.08
2019-05-30T15:44:28.583Z,20.31
2019-05-30T15:47:37.191Z,20.68
2019-05-30T15:50:43.714Z,20.71
2019-05-30T15:53:50.113Z,20.79
2019-05-30T15:56:56.602Z,20.34
2019-05-30T16:00:03.096Z,20.53
2019-05-30T16:03:10.433Z,20.63
2019-05-30T16:06:17.083Z,20.44
2019-05-30T16:09:23.573Z,20.71
2019-05-30T16:12:30.117Z,20.65
2019-05-30T16:15:36.875Z,20.76
2019-05-30T16:18:43.301Z,20.43
2019-05-30T16:21:49.802Z,20.04
2019-05-30T16:24:56.455Z,19.80
2019-05-30T16:28:03.064Z,19.86
2019-05-30T16:31:09.600Z,19.60
2019-05-30T16:34:16.195Z,19.87
2019-05-30T16:37:23.828Z,19.89
2019-05-30T16:40:30.346Z,20.15
2019-05-30T16:43:36.861Z,20.18
2019-05-30T16:46:43.385Z,20.21
2019-05-30T16:49:49.894Z,20.23
2019-05-30T16:52:56.394Z,20.15
2019-05-30T16:56:03.894Z,20.06
2019-05-30T16:59:10.421Z,19.78
2019-05-30T17:02:17.046Z,19.45
2019-05-30T17:05:25.482Z,19.33
2019-05-30T17:08:35.916Z,19.30
2019-05-30T17:11:42.692Z,19.18
2019-05-30T17:14:49.391Z,19.09
2019-05-30T17:17:55.832Z,19.10
2019-05-30T17:21:02.456Z,19.29
2019-05-30T17:24:09.009Z,18.93
2019-05-30T17:27:15.457Z,19.08
2019-05-30T17:30:23.970Z,19.02
2019-05-30T17:33:30.430Z,19.05
2019-05-30T17:36:39.532Z,19.01
2019-05-30T17:39:46.359Z,18.80
2019-05-30T17:42:52.858Z,18.85
2019-05-30T17:45:59.308Z,18.73
2019-05-30T17:49:06.938Z,18.99
2019-05-30T17:52:13.320Z,19.07
2019-05-30T17:55:20.187Z,18.97
2019-05-30T17:58:27.867Z,18.85
2019-05-30T18:01:35.924Z,18.92
2019-05-30T18:04:42.512Z,18.80
2019-05-30T18:07:48.950Z,18.72
2019-05-30T18:10:55.425Z,18.74
2019-05-30T18:14:02.072Z,18.40
2019-05-30T18:17:09.420Z,18.61
2019-05-30T18:20:18.414Z,18.60
2019-05-30T18:23:25.516Z,18.82
2019-05-30T18:26:34.862Z,18.73
2019-05-30T18:29:41.378Z,18.73
2019-05-30T18:32:47.902Z,18.17
2019-05-30T18:35:54.405Z,17.52
2019-05-30T18:39:01.106Z,17.52
2019-05-30T18:42:10.612Z,17.56
2019-05-30T18:45:24.946Z,17.78
2019-05-30T18:48:31.896Z,17.78
2019-05-30T18:51:38.498Z,17.72
2019-05-30T18:54:44.945Z,17.44
2019-05-30T18:57:51.448Z,17.22
2019-05-30T19:00:57.905Z,16.99
2019-05-30T19:04:04.596Z,17.23
2019-05-30T19:07:11.215Z,16.88
2019-05-30T19:10:17.913Z,16.81
2019-05-30T19:13:25.554Z,16.68
2019-05-30T19:16:34.558Z,16.93
2019-05-30T19:19:41.217Z,17.00
2019-05-30T19:22:47.647Z,17.09
2019-05-30T19:25:54.069Z,17.07
2019-05-30T19:29:12.930Z,16.84
2019-05-30T19:32:19.369Z,16.90
2019-05-30T19:35:27.022Z,16.85
2019-05-30T19:38:37.683Z,16.85
2019-05-30T19:41:55.539Z,16.59
2019-05-30T19:44:53.278Z,16.66
2019-05-30T19:47:59.719Z,16.69
2019-05-30T19:51:06.232Z,16.62
2019-05-30T19:54:12.701Z,16.57
2019-05-30T19:57:22.011Z,16.54
2019-05-30T20:00:29.858Z,16.24
2019-05-30T20:03:43.595Z,16.40
2019-05-30T20:06:44.915Z,16.06
2019-05-30T20:10:00.798Z,16.14
2019-05-30T20:12:59.792Z,16.23
2019-05-30T20:16:06.428Z,16.33
2019-05-30T20:19:13.016Z,16.26
2019-05-30T20:22:19.488Z,15.69
2019-05-30T20:25:26.043Z,16.09
2019-05-30T20:28:34.997Z,16.01
2019-05-30T20:31:41.521Z,15.74
2019-05-30T20:34:47.935Z,15.56
2019-05-30T20:37:54.366Z,15.66
2019-05-30T20:41:00.784Z,15.74
2019-05-30T20:44:07.394Z,16.03
2019-05-30T20:47:14.049Z,16.00
2019-05-30T20:50:22.470Z,15.90
2019-05-30T20:53:28.942Z,15.56
2019-05-30T20:56:37.884Z,15.54
2019-05-30T20:59:44.368Z,15.32
2019-05-30T21:02:51.114Z,15.37
2019-05-30T21:05:59.204Z,15.68
2019-05-30T21:09:07.843Z,15.60
2019-05-30T21:12:15.802Z,15.81
2019-05-30T21:15:23.294Z,15.69
2019-05-30T21:18:29.929Z,15.28
2019-05-30T21:21:36.547Z,15.16
2019-05-30T21:24:43.362Z,15.30
2019-05-30T21:27:49.836Z,15.60
2019-05-30T21:30:56.272Z,15.37
2019-05-30T21:34:02.810Z,15.13
2019-05-30T21:37:09.390Z,15.43
2019-05-30T21:40:17.031Z,15.35
2019-05-30T21:43:23.469Z,15.12
2019-05-30T21:46:29.970Z,15.25
2019-05-30T21:49:38.794Z,15.44
2019-05-30T21:52:46.339Z,15.12
2019-05-30T21:55:53.237Z,15.10
2019-05-30T21:58:59.721Z,15.08
2019-05-30T22:02:06.716Z,14.80
2019-05-30T22:05:13.331Z,14.88
2019-05-30T22:08:19.731Z,14.93
2019-05-30T22:11:26.279Z,15.00
2019-05-30T22:14:33.208Z,15.07
2019-05-30T22:17:39.738Z,15.14
2019-05-30T22:20:46.229Z,15.21
2019-05-30T22:23:52.808Z,15.29
2019-05-30T22:26:59.269Z,15.30
2019-05-30T22:30:06.667Z,15.14
2019-05-30T22:33:14.957Z,15.04
2019-05-30T22:36:21.537Z,14.60
2019-05-30T22:39:28.015Z,15.01
2019-05-30T22:42:35.965Z,14.94
2019-05-30T22:45:44.112Z,14.95
2019-05-30T22:48:50.617Z,15.03
2019-05-30T22:51:57.477Z,15.03
2019-05-30T22:55:04.207Z,14.87
2019-05-30T22:58:10.612Z,14.85
2019-05-30T23:01:16.997Z,14.96
2019-05-30T23:04:23.455Z,14.78
2019-05-30T23:07:29.964Z,14.56
2019-05-30T23:10:38.040Z,14.63
2019-05-30T23:13:45.680Z,14.28
2019-05-30T23:16:52.351Z,14.61
2019-05-30T23:19:58.826Z,14.68
2019-05-30T23:23:05.413Z,14.72
2019-05-30T23:26:11.853Z,14.78
2019-05-30T23:29:18.362Z,14.99
2019-05-30T23:32:24.889Z,14.92
2019-05-30T23:35:31.917Z,14.76
2019-05-30T23:38:38.383Z,14.99
2019-05-30T23:41:46.384Z,14.81
2019-05-30T23:44:53.330Z,15.19
2019-05-30T23:47:59.859Z,14.90
2019-05-30T23:51:06.466Z,14.59
2019-05-30T23:54:13.961Z,14.45
2019-05-30T23:57:20.417Z,14.78
